Weott, CA

12:38 PM PST on December 27, 2014 (GMT -0800)
Rohnerville | Change Station
CLOSE
Current Station
Airport
Location: Fortuna,
Elevation: 394 ft
Nearby Weather Stations

Elev 394 ft 40.55 °N, 124.13 °W | Updated 23 minutes ago

Partly Cloudy
Partly Cloudy
48 °F
Feels Like 48 °F
N
4
Wind Variable Wind from South

Today
High -- | Low -- °F
--% Chance of Precip.
Yesterday
High -- | Low -- °F
Precip. -- in
7:37 AM 4:56 PM
Waxing Crescent, 40% visible
Pressure 30.33 in
Visibility 10.0 miles
Clouds Clear
Dew Point 37 °F
Humidity 66%
Rainfall 0.00 in
Snow Depth Not available.
UV 2 out of 12
Pollen 2.70 out of 12
Air Quality Not available.
Flu Activity Not available.
METAR KFOT 272015Z AUTO 18003KT 10SM CLR 09/03 A3033 RMK AO1

More Conditions Fewer Conditions

Pressure 30.33 in
Visibility 10.0 miles
Clouds Clear
Dew Point 37 °F
Humidity 66%
Rainfall 0.00 in
Snow Depth Not available.
UV 2 out of 12
Pollen 2.70 out of 12
Air Quality Not available.
Flu Activity Not available.
METAR KFOT 272015Z AUTO 18003KT 10SM CLR 09/03 A3033 RMK AO1

More Conditions Fewer Conditions

10-Day Weather Forecast

Almanac

Astronomy

Dec. 27, 2014 Rise Set
Actual Time
Civil Twilight
Nautical Twilight
Astronomical Twilight
Moon
Length of Visible Light
Length of Day
Tomorrow will be .
, % of the Moon is Illuminated

Today's Extremes

State Highs State Lows

Community

WunderPhotos

Upload Photos

1,781,048 photos uploaded!

WunderBlogs® & News

Nearby

Air Quality

  Air Quality AQ Index Pollutant
Not available.

Snow Depth

Station Depth Elevation

Earthquake Activity

City Distance Mag. Time & Date
Minimum magnitude displayed is 2.5.

Coastal Water Temperatures

Place Temperature

Nearby Weather Stations